Terminal Aerodrome Forecast
Issued by NWS Sioux Falls, SD

Home | Current Version | Previous Version | Graphics & Text | Print | Product List | Glossary On
Versions: 1 2 3 4 5 6 7 8 9 10 11 12 13 14 15 16 17 18 19
896
FTUS43 KFSD 282243 AAA
TAFHON
TAF AMD
KHON 282243Z 2823/2918 04012KT P6SM OVC018
     FM290000 05008KT P6SM SCT025 OVC035
     FM291000 VRB03KT P6SM OVC020
     FM291600 07009KT P6SM OVC030=

USA.gov is the U.S. government's official web portal to all federal, state and local government web resources and services.